createdAt,value
2022-12-29T00:00:00.206Z,3.75
2022-12-29T00:02:27.821Z,3.10
2022-12-29T00:04:55.415Z,2.53
2022-12-29T00:07:22.378Z,2.70
2022-12-29T00:09:49.576Z,2.20
2022-12-29T00:12:16.542Z,2.17
2022-12-29T00:15:02.241Z,2.78
2022-12-29T00:17:29.566Z,2.50
2022-12-29T00:20:15.216Z,2.28
2022-12-29T00:23:01.137Z,1.65
2022-12-29T00:25:46.937Z,2.20
2022-12-29T00:28:32.636Z,1.80
2022-12-29T00:31:20.127Z,2.15
2022-12-29T00:34:06.036Z,1.75
2022-12-29T00:36:42.243Z,1.70
2022-12-29T00:39:30.908Z,1.88
2022-12-29T00:42:16.698Z,1.38
2022-12-29T00:44:44.404Z,1.30
2022-12-29T00:47:11.332Z,1.20
2022-12-29T00:49:39.146Z,1.40
2022-12-29T00:52:08.733Z,1.08
2022-12-29T00:54:39.168Z,1.20
2022-12-29T00:57:07.973Z,1.40
2022-12-29T00:59:39.936Z,1.20
2022-12-29T01:02:07.798Z,1.10
2022-12-29T01:04:35.490Z,1.02
2022-12-29T01:07:02.582Z,1.08
2022-12-29T01:09:48.556Z,1.20
2022-12-29T01:12:15.676Z,0.90
2022-12-29T01:14:42.703Z,1.00
2022-12-29T01:17:09.855Z,1.23
2022-12-29T01:19:36.897Z,0.95
2022-12-29T01:22:04.253Z,1.42
2022-12-29T01:24:31.213Z,1.20
2022-12-29T01:26:58.483Z,0.82
2022-12-29T01:29:25.997Z,0.95
2022-12-29T01:31:53.636Z,1.40
2022-12-29T01:34:20.809Z,1.10
2022-12-29T01:36:47.937Z,0.90
2022-12-29T01:39:15.054Z,1.17
2022-12-29T01:41:43.376Z,0.80
2022-12-29T01:44:47.815Z,1.38
2022-12-29T01:47:49.569Z,1.27
2022-12-29T01:50:25.538Z,1.38
2022-12-29T01:53:08.958Z,1.17
2022-12-29T01:55:40.976Z,1.15
2022-12-29T01:58:10.216Z,1.30
2022-12-29T02:00:38.571Z,1.67
2022-12-29T02:03:08.140Z,2.00
2022-12-29T02:05:44.095Z,1.00
2022-12-29T02:08:14.263Z,1.17
2022-12-29T02:10:42.076Z,0.70
2022-12-29T02:13:10.595Z,1.13
2022-12-29T02:15:49.446Z,0.80
2022-12-29T02:21:13.334Z,1.58
2022-12-29T02:24:03.458Z,1.52
2022-12-29T02:26:36.383Z,0.93
2022-12-29T02:29:28.029Z,1.05
2022-12-29T02:32:19.645Z,1.02
2022-12-29T02:34:56.424Z,0.88
2022-12-29T02:37:25.138Z,1.17
2022-12-29T02:39:56.841Z,0.63
2022-12-29T02:42:34.460Z,0.70
2022-12-29T02:45:25.189Z,1.67
2022-12-29T02:48:19.103Z,1.38
2022-12-29T02:50:55.656Z,1.00
2022-12-29T02:53:44.898Z,1.23
2022-12-29T02:56:12.017Z,0.55
2022-12-29T02:58:39.164Z,0.93
2022-12-29T03:01:23.260Z,1.20
2022-12-29T03:04:21.593Z,1.42
2022-12-29T03:07:24.211Z,0.80
2022-12-29T03:10:09.938Z,0.73
2022-12-29T03:13:21.634Z,0.70
2022-12-29T03:16:17.298Z,0.63
2022-12-29T03:18:51.663Z,0.68
2022-12-29T03:21:50.593Z,1.00
2022-12-29T03:24:19.976Z,0.75
2022-12-29T03:26:48.640Z,1.10
2022-12-29T03:29:16.674Z,1.88
2022-12-29T03:31:45.968Z,1.75
2022-12-29T03:34:14.241Z,1.00
2022-12-29T03:36:48.302Z,1.48
2022-12-29T03:39:15.434Z,0.73
2022-12-29T03:41:44.312Z,1.88
2022-12-29T03:44:12.623Z,1.05
2022-12-29T03:46:39.788Z,1.50
2022-12-29T03:49:07.624Z,1.80
2022-12-29T03:51:34.840Z,0.68
2022-12-29T03:54:02.766Z,1.60
2022-12-29T03:56:30.344Z,2.47
2022-12-29T03:58:58.923Z,1.73
2022-12-29T04:01:31.828Z,1.00
2022-12-29T04:03:58.901Z,1.83
2022-12-29T04:06:26.468Z,1.25
2022-12-29T04:09:03.853Z,1.20
2022-12-29T04:11:34.818Z,1.30
2022-12-29T04:14:04.134Z,1.00
2022-12-29T04:16:34.755Z,1.85
2022-12-29T04:19:01.934Z,2.10
2022-12-29T04:21:29.255Z,1.30
2022-12-29T04:23:56.812Z,1.90
2022-12-29T04:26:24.280Z,1.55
2022-12-29T04:29:00.937Z,0.93
2022-12-29T04:31:40.756Z,1.38
2022-12-29T04:34:08.285Z,1.98
2022-12-29T04:36:35.325Z,1.48
2022-12-29T04:39:02.433Z,1.73
2022-12-29T04:41:29.435Z,3.15
2022-12-29T04:43:56.716Z,1.50
2022-12-29T04:46:23.888Z,1.85
2022-12-29T04:49:01.862Z,1.77
2022-12-29T04:51:49.174Z,1.63
2022-12-29T04:54:18.074Z,1.40
2022-12-29T04:56:50.794Z,2.20
2022-12-29T04:59:18.746Z,2.53
2022-12-29T05:01:48.825Z,1.45
2022-12-29T05:04:16.497Z,2.40
2022-12-29T05:06:44.524Z,2.13
2022-12-29T05:09:11.717Z,1.42
2022-12-29T05:11:39.361Z,1.25
2022-12-29T05:14:06.670Z,1.38
2022-12-29T05:16:36.090Z,2.30
2022-12-29T05:19:03.166Z,1.52
2022-12-29T05:21:32.366Z,1.63
2022-12-29T05:23:59.779Z,2.08
2022-12-29T05:26:27.517Z,1.63
2022-12-29T05:29:01.142Z,2.30
2022-12-29T05:31:28.375Z,2.20
2022-12-29T05:33:55.533Z,1.45
2022-12-29T05:36:22.574Z,1.58
2022-12-29T05:38:53.754Z,2.65
2022-12-29T05:41:21.056Z,1.65
2022-12-29T05:43:47.902Z,2.13
2022-12-29T05:46:41.317Z,1.33
2022-12-29T05:49:11.535Z,1.17
2022-12-29T05:51:55.336Z,2.22
2022-12-29T05:54:22.976Z,1.23
2022-12-29T05:56:49.991Z,3.00
2022-12-29T05:59:17.133Z,5.07
2022-12-29T06:01:44.319Z,1.83
2022-12-29T06:04:12.294Z,2.10
2022-12-29T06:06:41.016Z,1.70
2022-12-29T06:09:13.475Z,2.10
2022-12-29T06:11:40.596Z,1.67
2022-12-29T06:14:08.825Z,2.83
2022-12-29T06:16:36.229Z,2.50
2022-12-29T06:19:05.735Z,2.45
2022-12-29T06:21:32.774Z,1.50
2022-12-29T06:24:01.564Z,2.40
2022-12-29T06:26:28.626Z,2.35
2022-12-29T06:28:56.335Z,2.00
2022-12-29T06:31:23.493Z,1.85
2022-12-29T06:33:50.597Z,1.88
2022-12-29T06:36:18.341Z,2.65
2022-12-29T06:38:45.368Z,1.85
2022-12-29T06:41:12.939Z,1.63
2022-12-29T06:46:37.292Z,2.47
2022-12-29T06:49:04.477Z,2.20
2022-12-29T06:51:31.497Z,2.17
2022-12-29T06:53:58.569Z,2.20
2022-12-29T06:56:25.535Z,2.22
2022-12-29T06:58:52.565Z,2.22
2022-12-29T07:01:19.628Z,2.22
2022-12-29T07:03:47.276Z,2.15
2022-12-29T07:06:14.489Z,2.00
2022-12-29T07:08:41.482Z,3.03
2022-12-29T07:11:08.506Z,2.60
2022-12-29T07:13:35.991Z,2.40
2022-12-29T07:16:07.776Z,2.22
2022-12-29T07:18:34.974Z,3.20
2022-12-29T07:21:02.081Z,3.42
2022-12-29T07:23:29.436Z,2.95
2022-12-29T07:26:08.031Z,2.17
2022-12-29T07:28:36.079Z,4.45
2022-12-29T07:31:03.332Z,2.50
2022-12-29T07:33:30.996Z,2.92
2022-12-29T07:35:58.547Z,2.10
2022-12-29T07:38:25.618Z,2.72
2022-12-29T07:40:52.577Z,1.88
2022-12-29T07:43:19.735Z,2.58
2022-12-29T07:46:02.742Z,2.47
2022-12-29T07:48:29.786Z,2.30
2022-12-29T07:50:56.678Z,1.70
2022-12-29T07:53:23.819Z,2.55
2022-12-29T07:55:50.986Z,1.50
2022-12-29T07:58:19.906Z,1.83
2022-12-29T08:00:46.814Z,2.63
2022-12-29T08:03:13.977Z,2.08
2022-12-29T08:05:41.374Z,2.00
2022-12-29T08:08:08.477Z,3.10
2022-12-29T08:10:35.457Z,1.63
2022-12-29T08:13:02.496Z,2.47
2022-12-29T08:15:32.513Z,4.00
2022-12-29T08:18:00.236Z,2.25
2022-12-29T08:20:26.999Z,2.17
2022-12-29T08:22:54.114Z,2.88
2022-12-29T08:25:21.105Z,2.38
2022-12-29T08:27:48.623Z,2.25
2022-12-29T08:30:16.160Z,2.40
2022-12-29T08:32:43.339Z,2.95
2022-12-29T08:35:10.395Z,2.15
2022-12-29T08:37:37.951Z,3.35
2022-12-29T08:40:05.457Z,2.92
2022-12-29T08:42:33.322Z,3.08
2022-12-29T08:45:00.716Z,3.38
2022-12-29T08:47:28.383Z,4.15
2022-12-29T08:49:55.488Z,5.78
2022-12-29T08:52:22.647Z,6.95
2022-12-29T08:54:51.133Z,6.22
2022-12-29T08:57:18.252Z,6.15
2022-12-29T09:00:03.606Z,5.20
2022-12-29T09:02:30.975Z,6.80
2022-12-29T09:05:01.557Z,7.20
2022-12-29T09:07:28.668Z,5.25
2022-12-29T09:09:55.692Z,3.85
2022-12-29T09:12:22.712Z,5.00
2022-12-29T09:14:51.177Z,5.10
2022-12-29T09:17:36.617Z,3.50
2022-12-29T09:20:04.495Z,2.47
2022-12-29T09:22:31.607Z,3.53
2022-12-29T09:24:58.773Z,4.25
2022-12-29T09:27:25.553Z,4.03
2022-12-29T09:29:52.410Z,4.07
2022-12-29T09:32:19.877Z,5.88
2022-12-29T09:34:48.122Z,5.43
2022-12-29T09:37:15.117Z,5.97
2022-12-29T09:39:41.987Z,5.43
2022-12-29T09:42:15.937Z,5.78
2022-12-29T09:45:13.944Z,8.18
2022-12-29T09:47:42.586Z,7.72
2022-12-29T09:50:39.004Z,8.77
2022-12-29T09:53:20.977Z,5.72
2022-12-29T09:55:53.445Z,6.55
2022-12-29T09:58:43.100Z,5.95
2022-12-29T10:01:22.916Z,4.18
2022-12-29T10:03:53.213Z,5.43
2022-12-29T10:06:32.864Z,4.72
2022-12-29T10:09:12.029Z,5.05
2022-12-29T10:11:58.151Z,5.68
2022-12-29T10:14:34.122Z,4.03
2022-12-29T10:17:16.536Z,4.18
2022-12-29T10:19:51.653Z,4.30
2022-12-29T10:22:57.370Z,4.30
2022-12-29T10:25:31.079Z,3.88
2022-12-29T10:28:01.715Z,3.67
2022-12-29T10:30:29.849Z,4.95
2022-12-29T10:33:00.289Z,3.47
2022-12-29T10:35:34.070Z,3.78
2022-12-29T10:38:03.455Z,3.58
2022-12-29T10:40:37.638Z,4.30
2022-12-29T10:43:16.856Z,2.85
2022-12-29T10:45:46.780Z,4.30
2022-12-29T10:48:38.145Z,4.45
2022-12-29T10:51:07.414Z,5.80
2022-12-29T10:53:40.170Z,4.53
2022-12-29T10:56:33.995Z,6.00
2022-12-29T10:59:08.217Z,4.78
2022-12-29T11:01:40.954Z,4.40
2022-12-29T11:04:49.661Z,6.05
2022-12-29T11:07:22.162Z,7.50
2022-12-29T11:09:52.675Z,6.28
2022-12-29T11:12:21.403Z,6.65
2022-12-29T11:14:48.930Z,5.90
2022-12-29T11:17:18.555Z,5.82
2022-12-29T11:19:45.455Z,4.57
2022-12-29T11:22:31.066Z,4.50
2022-12-29T11:25:08.416Z,4.30
2022-12-29T11:27:36.135Z,4.57
2022-12-29T11:30:04.616Z,3.85
2022-12-29T11:32:31.798Z,3.25
2022-12-29T11:34:59.965Z,3.67
2022-12-29T11:37:33.155Z,2.35
2022-12-29T11:40:22.545Z,3.58
2022-12-29T11:42:54.067Z,3.28
2022-12-29T11:45:23.611Z,2.45
2022-12-29T11:48:15.430Z,2.53
2022-12-29T11:50:43.180Z,2.13
2022-12-29T11:53:26.250Z,2.10
2022-12-29T11:55:59.032Z,2.60
2022-12-29T11:58:38.091Z,4.18
2022-12-29T12:01:15.657Z,1.95
2022-12-29T12:03:51.320Z,2.45
2022-12-29T12:06:22.063Z,2.83
2022-12-29T12:08:56.146Z,1.88
2022-12-29T12:11:44.467Z,2.40
2022-12-29T12:14:33.075Z,1.60
2022-12-29T12:17:38.710Z,3.53
2022-12-29T12:20:45.149Z,2.85
2022-12-29T12:23:27.279Z,2.85
2022-12-29T12:26:02.969Z,1.73
2022-12-29T12:28:47.386Z,3.22
2022-12-29T12:31:35.659Z,2.55
2022-12-29T12:34:07.731Z,2.05
2022-12-29T12:36:56.643Z,2.22
2022-12-29T12:39:35.955Z,2.58
2022-12-29T12:42:19.644Z,4.18
2022-12-29T12:45:02.601Z,2.90
2022-12-29T12:48:07.296Z,4.20
2022-12-29T12:50:43.776Z,3.20
2022-12-29T12:53:29.455Z,2.97
2022-12-29T12:55:59.700Z,1.85
2022-12-29T12:58:45.133Z,1.92
2022-12-29T13:01:15.344Z,1.60
2022-12-29T13:03:54.751Z,1.63
2022-12-29T13:06:36.925Z,1.40
2022-12-29T13:09:26.096Z,2.10
2022-12-29T13:12:02.166Z,1.50
2022-12-29T13:14:31.983Z,2.08
2022-12-29T13:17:17.081Z,1.73
2022-12-29T13:19:50.243Z,1.60
2022-12-29T13:22:31.295Z,2.22
2022-12-29T13:25:13.823Z,2.03
2022-12-29T13:27:48.607Z,1.30
2022-12-29T13:30:24.046Z,2.30
2022-12-29T13:33:22.377Z,2.15
2022-12-29T13:36:15.424Z,2.10
2022-12-29T13:38:48.715Z,1.83
2022-12-29T13:41:32.110Z,3.78
2022-12-29T13:44:00.065Z,5.30
2022-12-29T13:46:31.189Z,1.30
2022-12-29T13:49:09.295Z,1.80
2022-12-29T13:51:37.305Z,2.20
2022-12-29T13:54:13.363Z,2.22
2022-12-29T13:57:02.053Z,4.40
2022-12-29T13:59:42.252Z,1.50
2022-12-29T14:02:18.304Z,2.47
2022-12-29T14:05:04.788Z,3.05
2022-12-29T14:07:38.766Z,3.20
2022-12-29T14:10:06.932Z,3.00
2022-12-29T14:12:37.275Z,3.08
2022-12-29T14:15:16.616Z,9.48
2022-12-29T14:17:44.188Z,36.80
2022-12-29T14:20:24.314Z,4.53
2022-12-29T14:23:07.951Z,5.00
2022-12-29T14:26:10.824Z,9.18
2022-12-29T14:28:48.743Z,6.22
2022-12-29T14:31:16.056Z,4.22
2022-12-29T14:34:09.863Z,5.32
2022-12-29T14:36:41.871Z,2.22
2022-12-29T14:39:30.493Z,3.03
2022-12-29T14:42:18.632Z,2.90
2022-12-29T14:45:11.441Z,4.95
2022-12-29T14:47:43.992Z,4.28
2022-12-29T14:50:19.061Z,3.97
2022-12-29T14:52:50.076Z,6.07
2022-12-29T14:55:16.923Z,2.65
2022-12-29T14:57:58.174Z,2.72
2022-12-29T15:00:30.908Z,3.03
2022-12-29T15:03:06.873Z,1.27
2022-12-29T15:05:35.665Z,2.10
2022-12-29T15:08:04.176Z,2.90
2022-12-29T15:10:38.006Z,2.58
2022-12-29T15:13:11.179Z,2.90
2022-12-29T15:15:39.430Z,8.35
2022-12-29T15:18:35.883Z,3.53
2022-12-29T15:21:05.930Z,3.13
2022-12-29T15:23:36.221Z,4.80
2022-12-29T15:26:08.453Z,3.47
2022-12-29T15:28:41.157Z,2.70
2022-12-29T15:31:14.371Z,3.75
2022-12-29T15:33:42.999Z,3.63
2022-12-29T15:36:29.553Z,7.57
2022-12-29T15:38:57.836Z,7.78
2022-12-29T15:41:33.624Z,5.75
2022-12-29T15:44:09.932Z,10.13
2022-12-29T15:46:37.525Z,6.03
2022-12-29T15:49:09.654Z,7.30
2022-12-29T15:51:39.605Z,6.65
2022-12-29T15:54:07.488Z,4.57
2022-12-29T15:56:34.967Z,5.78
2022-12-29T15:59:02.963Z,5.65
2022-12-29T16:01:34.016Z,6.82
2022-12-29T16:04:04.557Z,4.20
2022-12-29T16:06:39.695Z,3.13
2022-12-29T16:09:08.410Z,4.05
2022-12-29T16:11:40.182Z,4.03
2022-12-29T16:14:19.243Z,5.18
2022-12-29T16:16:47.922Z,5.00
2022-12-29T16:19:20.666Z,3.17
2022-12-29T16:21:48.024Z,2.90
2022-12-29T16:24:21.663Z,3.03
2022-12-29T16:26:50.919Z,3.67
2022-12-29T16:29:18.843Z,2.72
2022-12-29T16:32:01.868Z,5.38
2022-12-29T16:34:40.270Z,3.72
2022-12-29T16:37:29.099Z,5.80
2022-12-29T16:39:56.381Z,3.30
2022-12-29T16:42:47.227Z,2.88
2022-12-29T16:45:20.806Z,3.85
2022-12-29T16:48:05.956Z,4.70
2022-12-29T16:53:00.203Z,3.97
2022-12-29T16:55:27.212Z,10.93
2022-12-29T16:57:57.507Z,12.80
2022-12-29T17:00:27.109Z,12.40
2022-12-29T17:02:57.216Z,8.63
2022-12-29T17:05:24.683Z,6.35
2022-12-29T17:07:52.444Z,3.85
2022-12-29T17:10:20.364Z,5.88
2022-12-29T17:12:48.925Z,8.30
2022-12-29T17:15:35.349Z,8.52
2022-12-29T17:18:02.481Z,6.55
2022-12-29T17:20:31.542Z,4.72
2022-12-29T17:22:59.780Z,5.07
2022-12-29T17:25:34.061Z,7.45
2022-12-29T17:28:04.377Z,10.38
2022-12-29T17:30:34.235Z,8.85
2022-12-29T17:33:03.941Z,11.23
2022-12-29T17:35:31.513Z,8.80
2022-12-29T17:37:58.654Z,12.15
2022-12-29T17:40:28.509Z,6.97
2022-12-29T17:42:57.396Z,6.72
2022-12-29T17:45:29.486Z,10.23
2022-12-29T17:47:57.572Z,9.65
2022-12-29T17:50:26.225Z,12.15
2022-12-29T17:53:00.815Z,10.38
2022-12-29T17:55:36.759Z,6.35
2022-12-29T17:58:22.899Z,4.18
2022-12-29T18:00:52.710Z,5.20
2022-12-29T18:03:41.031Z,5.47
2022-12-29T18:06:12.056Z,5.65
2022-12-29T18:08:40.261Z,6.43
2022-12-29T18:11:22.440Z,3.92
2022-12-29T18:13:49.735Z,2.78
2022-12-29T18:16:17.268Z,2.53
2022-12-29T18:18:45.151Z,2.97
2022-12-29T18:21:18.042Z,4.50
2022-12-29T18:23:45.447Z,2.95
2022-12-29T18:26:28.025Z,3.95
2022-12-29T18:28:56.689Z,4.47
2022-12-29T18:31:31.735Z,5.07
2022-12-29T18:34:01.394Z,4.25
2022-12-29T18:36:29.436Z,4.60
2022-12-29T18:38:56.724Z,5.75
2022-12-29T18:41:32.081Z,4.20
2022-12-29T18:44:00.005Z,5.35
2022-12-29T18:46:27.570Z,5.22
2022-12-29T18:48:55.149Z,8.55
2022-12-29T18:51:24.371Z,6.03
2022-12-29T18:53:54.292Z,6.50
2022-12-29T18:56:23.095Z,4.97
2022-12-29T18:58:51.903Z,4.70
2022-12-29T19:01:21.314Z,5.13
2022-12-29T19:03:48.554Z,4.65
2022-12-29T19:06:15.780Z,5.10
2022-12-29T19:08:43.688Z,5.57
2022-12-29T19:11:11.102Z,4.95
2022-12-29T19:13:38.413Z,4.32
2022-12-29T19:16:06.827Z,4.63
2022-12-29T19:19:05.690Z,5.25
2022-12-29T19:21:23.961Z,5.13
2022-12-29T19:23:52.187Z,8.00
2022-12-29T19:26:31.365Z,8.32
2022-12-29T19:31:25.641Z,14.75
2022-12-29T19:33:53.955Z,4.35
2022-12-29T19:36:21.612Z,4.00
2022-12-29T19:38:48.965Z,3.88
2022-12-29T19:41:16.093Z,4.63
2022-12-29T19:43:44.250Z,5.60
2022-12-29T19:46:16.151Z,6.72
2022-12-29T19:48:43.543Z,7.88
2022-12-29T19:51:13.502Z,6.25
2022-12-29T19:53:40.499Z,5.78
2022-12-29T19:56:08.602Z,8.65
2022-12-29T19:58:39.542Z,4.80
2022-12-29T20:01:13.505Z,6.03
2022-12-29T20:03:41.343Z,5.85
2022-12-29T20:06:09.977Z,3.88
2022-12-29T20:08:38.283Z,5.10
2022-12-29T20:11:13.673Z,4.75
2022-12-29T20:13:41.358Z,4.68
2022-12-29T20:16:12.825Z,26.00
2022-12-29T20:18:40.665Z,5.35
2022-12-29T20:21:10.121Z,5.53
2022-12-29T20:23:39.522Z,5.63
2022-12-29T20:26:09.275Z,7.30
2022-12-29T20:28:36.426Z,7.00
2022-12-29T20:31:06.782Z,5.40
2022-12-29T20:33:35.892Z,4.75
2022-12-29T20:36:11.944Z,8.13
2022-12-29T20:38:39.341Z,11.18
2022-12-29T20:41:06.787Z,6.03
2022-12-29T20:43:34.329Z,6.97
2022-12-29T20:46:01.490Z,8.00
2022-12-29T20:48:30.012Z,7.22
2022-12-29T20:51:00.786Z,6.28
2022-12-29T20:53:28.820Z,6.38
2022-12-29T20:56:01.270Z,4.80
2022-12-29T20:58:28.614Z,4.53
2022-12-29T21:00:55.868Z,5.57
2022-12-29T21:03:23.339Z,10.18
2022-12-29T21:05:52.628Z,7.97
2022-12-29T21:08:21.620Z,8.10
2022-12-29T21:10:49.682Z,8.05
2022-12-29T21:13:17.099Z,11.57
2022-12-29T21:15:45.533Z,9.07
2022-12-29T21:18:13.941Z,9.80
2022-12-29T21:20:41.419Z,7.90
2022-12-29T21:23:08.421Z,7.07
2022-12-29T21:25:38.468Z,10.43
2022-12-29T21:28:12.363Z,12.15
2022-12-29T21:30:39.832Z,8.00
2022-12-29T21:33:06.851Z,14.38
2022-12-29T21:35:40.376Z,12.13
2022-12-29T21:38:08.089Z,12.07
2022-12-29T21:40:35.962Z,9.88
2022-12-29T21:43:03.661Z,6.03
2022-12-29T21:45:34.647Z,5.20
2022-12-29T21:48:24.540Z,5.95
2022-12-29T21:51:12.924Z,3.75
2022-12-29T21:53:42.113Z,4.03
2022-12-29T21:56:10.949Z,4.05
2022-12-29T21:58:58.036Z,7.18
2022-12-29T22:01:45.444Z,4.55
2022-12-29T22:04:32.940Z,7.03
2022-12-29T22:07:18.694Z,13.90
2022-12-29T22:10:04.333Z,6.75
2022-12-29T22:12:51.329Z,5.10
2022-12-29T22:15:18.429Z,6.53
2022-12-29T22:17:50.537Z,5.93
2022-12-29T22:20:18.853Z,10.23
2022-12-29T22:22:46.568Z,8.00
2022-12-29T22:25:14.293Z,8.32
2022-12-29T22:27:41.495Z,8.15
2022-12-29T22:30:09.691Z,7.45
2022-12-29T22:32:37.122Z,5.57
2022-12-29T22:35:08.158Z,9.93
2022-12-29T22:37:36.720Z,4.85
2022-12-29T22:40:05.701Z,3.65
2022-12-29T22:42:33.529Z,3.60
2022-12-29T22:45:00.512Z,3.17
2022-12-29T22:47:27.621Z,2.28
2022-12-29T22:49:54.762Z,2.42
2022-12-29T22:52:21.953Z,1.77
2022-12-29T22:54:49.344Z,2.40
2022-12-29T22:57:16.245Z,2.72
2022-12-29T22:59:43.335Z,2.42
2022-12-29T23:02:10.735Z,4.75
2022-12-29T23:07:25.629Z,2.45
2022-12-29T23:09:52.636Z,3.17
2022-12-29T23:12:19.731Z,1.50
2022-12-29T23:14:46.663Z,6.07
2022-12-29T23:17:13.795Z,1.88
2022-12-29T23:19:40.763Z,2.20
2022-12-29T23:22:07.875Z,2.05
2022-12-29T23:24:34.853Z,2.45
2022-12-29T23:27:01.993Z,2.78
2022-12-29T23:29:29.350Z,2.33
2022-12-29T23:31:56.441Z,2.75
2022-12-29T23:34:23.529Z,2.30
2022-12-29T23:36:51.228Z,1.92
2022-12-29T23:39:24.677Z,2.13
2022-12-29T23:41:52.251Z,1.95
2022-12-29T23:44:19.869Z,2.35
2022-12-29T23:46:47.612Z,2.45
2022-12-29T23:49:14.797Z,2.33
2022-12-29T23:51:42.101Z,2.40
2022-12-29T23:54:09.109Z,1.70
2022-12-29T23:56:36.359Z,1.90
2022-12-29T23:59:05.350Z,2.45
